Time;durP1;ratioP1;P1;durP2;ratioP2;P2;SDS_P1;SDS_P2;PMS_P1;PMS_P2;Temp;Humidity;BMP_temperature;BMP_pressure;BME280_temperature;BME280_humidity;BME280_pressure;Samples;Min_cycle;Max_cycle;Signal;HPM_P1;HPM_P2
2022/11/17 00:01:23;;;;;;;1.20;0.97;;;;;;;10.06;100.00;98405.91;5063922;28;20177;-76
2022/11/17 00:03:49;;;;;;;1.23;0.80;;;;;;;10.05;100.00;98387.00;5061635;28;20214;-76
2022/11/17 00:06:19;;;;;;;2.47;1.20;;;;;;;10.02;100.00;98365.56;5062895;28;20669;-76
2022/11/17 00:08:44;;;;;;;1.57;1.23;;;;;;;9.97;100.00;98362.34;5064710;28;20176;-76
2022/11/17 00:11:10;;;;;;;1.90;1.30;;;;;;;9.90;100.00;98354.78;5060235;28;20208;-76
2022/11/17 00:16:21;;;;;;;3.57;1.33;;;;;;;9.85;100.00;98353.28;5059017;28;20794;-77
2022/11/17 00:21:32;;;;;;;23.90;4.13;;;;;;;9.84;100.00;98333.50;5065662;28;20221;-76
2022/11/17 00:23:57;;;;;;;15.50;3.03;;;;;;;9.83;100.00;98322.31;5065102;28;20175;-76
2022/11/17 00:26:25;;;;;;;18.40;2.77;;;;;;;9.83;100.00;98316.31;5069946;28;20695;-76
2022/11/17 00:28:56;;;;;;;7.77;1.90;;;;;;;9.85;100.00;98309.38;5064346;28;20753;-76
2022/11/17 00:34:12;;;;;;;4.60;1.40;;;;;;;9.78;100.00;98301.00;5066669;28;20244;-76
2022/11/17 00:36:41;;;;;;;3.13;1.50;;;;;;;9.75;100.00;98295.94;5062055;28;20191;-76
2022/11/17 00:39:08;;;;;;;2.43;1.00;;;;;;;9.73;100.00;98290.84;5058860;28;20182;-76
2022/11/17 00:41:34;;;;;;;2.23;1.30;;;;;;;9.75;100.00;98291.66;5058048;28;20202;-76
2022/11/17 00:43:59;;;;;;;2.33;1.10;;;;;;;9.77;100.00;98289.00;5062765;28;20186;-76
2022/11/17 00:46:24;;;;;;;2.40;1.23;;;;;;;9.80;100.00;98285.44;5049802;28;20197;-76
2022/11/17 00:48:50;;;;;;;2.00;1.30;;;;;;;9.80;100.00;98277.69;5063944;28;20222;-76
2022/11/17 00:51:16;;;;;;;1.87;1.00;;;;;;;9.81;100.00;98279.38;5059323;28;20666;-75
2022/11/17 00:53:44;;;;;;;2.17;0.90;;;;;;;9.83;100.00;98269.81;5058958;28;20198;-76
2022/11/17 00:56:09;;;;;;;1.17;1.00;;;;;;;9.85;100.00;98270.63;5061597;28;20190;-75
2022/11/17 00:58:35;;;;;;;1.20;0.87;;;;;;;9.85;100.00;98258.53;5057177;28;20186;-76
2022/11/17 01:01:01;;;;;;;1.00;0.90;;;;;;;9.89;100.00;98252.34;5065589;28;20609;-76
2022/11/17 01:03:26;;;;;;;1.00;0.80;;;;;;;9.93;100.00;98254.81;5056612;28;20571;-76
2022/11/17 01:05:51;;;;;;;1.30;1.00;;;;;;;9.94;100.00;98257.31;5064662;28;20276;-76
2022/11/17 01:08:17;;;;;;;1.40;0.80;;;;;;;9.96;100.00;98240.03;5070415;28;20190;-76
2022/11/17 01:10:42;;;;;;;1.80;1.00;;;;;;;9.96;100.00;98246.94;5067488;28;20183;-76
2022/11/17 01:13:08;;;;;;;1.00;0.80;;;;;;;9.95;100.00;98245.25;5066058;28;20214;-76
2022/11/17 01:15:33;;;;;;;1.73;0.93;;;;;;;9.94;100.00;98241.81;5064731;28;20870;-76
2022/11/17 01:17:59;;;;;;;1.57;0.90;;;;;;;9.97;100.00;98235.72;5061193;28;20233;-76
2022/11/17 01:20:24;;;;;;;0.67;0.60;;;;;;;9.99;100.00;98231.31;5067934;28;22345;-76
2022/11/17 01:22:49;;;;;;;2.23;0.87;;;;;;;10.01;100.00;98214.84;5065928;28;20584;-76
2022/11/17 01:25:14;;;;;;;0.70;0.70;;;;;;;10.03;100.00;98210.47;5066455;28;20660;-76
2022/11/17 01:27:40;;;;;;;1.90;0.90;;;;;;;10.06;100.00;98199.16;5066696;28;20202;-76
2022/11/17 01:30:06;;;;;;;0.83;0.67;;;;;;;10.10;100.00;98189.53;5063448;28;20210;-76
2022/11/17 01:32:31;;;;;;;0.60;0.50;;;;;;;10.14;100.00;98180.75;5061230;28;20216;-76
2022/11/17 01:34:56;;;;;;;0.93;0.70;;;;;;;10.16;100.00;98171.19;5065214;28;21060;-76
2022/11/17 01:37:22;;;;;;;0.70;0.60;;;;;;;10.16;100.00;98168.63;5060396;28;20186;-76
2022/11/17 01:39:48;;;;;;;2.03;0.80;;;;;;;10.16;100.00;98172.03;5065701;28;20188;-76
2022/11/17 01:42:20;;;;;;;1.17;0.70;;;;;;;10.15;100.00;98164.34;5063377;28;20197;-76
2022/11/17 01:44:57;;;;;;;0.60;0.50;;;;;;;10.10;100.00;98163.69;5063843;28;20190;-76
2022/11/17 01:47:35;;;;;;;0.80;0.70;;;;;;;10.03;100.00;98155.34;5060767;28;20206;-76
2022/11/17 01:50:22;;;;;;;0.60;0.60;;;;;;;9.93;100.00;98151.47;5062926;28;20532;-75
2022/11/17 01:52:50;;;;;;;0.83;0.60;;;;;;;9.86;100.00;98143.13;5065079;28;20665;-75
2022/11/17 01:55:17;;;;;;;1.10;0.80;;;;;;;9.84;100.00;98138.00;5063655;28;22158;-75
2022/11/17 01:57:54;;;;;;;1.40;0.73;;;;;;;9.85;100.00;98126.75;5069250;28;20178;-75
2022/11/17 02:00:20;;;;;;;1.00;0.70;;;;;;;9.84;100.00;98117.34;5062837;28;20266;-75
2022/11/17 02:02:47;;;;;;;0.67;0.57;;;;;;;9.82;100.00;98108.84;5061278;28;20289;-75
2022/11/17 02:05:37;;;;;;;0.80;0.70;;;;;;;9.82;100.00;98113.13;5065998;28;20190;-75
2022/11/17 02:08:05;;;;;;;2.00;0.77;;;;;;;9.81;100.00;98103.72;5065639;28;20182;-77
2022/11/17 02:10:33;;;;;;;0.90;0.73;;;;;;;9.84;100.00;98104.41;5071028;28;20183;-75
2022/11/17 02:12:59;;;;;;;1.00;0.70;;;;;;;9.84;100.00;98081.16;5071467;28;20300;-77
2022/11/17 02:15:26;;;;;;;0.70;0.60;;;;;;;9.86;100.00;98088.88;5066536;28;20237;-74
2022/11/17 02:17:53;;;;;;;0.80;0.53;;;;;;;9.88;100.00;98095.66;5065435;28;20186;-74
2022/11/17 02:20:39;;;;;;;0.70;0.63;;;;;;;9.91;100.00;98094.66;5064732;28;20718;-74
2022/11/17 02:23:35;;;;;;;0.67;0.67;;;;;;;9.90;100.00;98091.25;5058856;28;20247;-76
2022/11/17 02:26:15;;;;;;;0.73;0.70;;;;;;;9.97;100.00;98091.00;5064059;28;20281;-75
2022/11/17 02:28:55;;;;;;;0.70;0.60;;;;;;;10.03;100.00;98095.91;5058847;28;20600;-75
2022/11/17 02:31:44;;;;;;;0.90;0.67;;;;;;;10.09;100.00;98106.00;5063380;28;20189;-75
2022/11/17 02:34:21;;;;;;;1.00;0.90;;;;;;;10.18;100.00;98102.19;5065793;28;20186;-76
2022/11/17 02:37:08;;;;;;;1.30;0.87;;;;;;;10.26;100.00;98117.38;5067108;28;20847;-75
2022/11/17 02:39:48;;;;;;;1.30;0.87;;;;;;;10.34;100.00;98128.22;5066315;28;20331;-75
2022/11/17 02:44:02;;;;;;;1.67;0.80;;;;;;;10.40;100.00;98146.09;5056812;28;20237;-76
2022/11/17 02:45:19;;;;;;;1.00;0.90;;;;;;;10.46;100.00;98138.06;5058425;28;20197;-76
2022/11/17 02:47:49;;;;;;;1.40;0.90;;;;;;;10.51;100.00;98127.53;5058822;28;20587;-75
2022/11/17 02:50:17;;;;;;;1.10;1.00;;;;;;;10.55;100.00;98116.13;5059827;28;20595;-76
2022/11/17 02:52:42;;;;;;;1.70;1.00;;;;;;;10.55;100.00;98118.72;5061520;28;20310;-75
2022/11/17 02:55:09;;;;;;;1.00;1.00;;;;;;;10.56;100.00;98119.56;5067460;28;20287;-76
2022/11/17 02:57:37;;;;;;;1.50;0.90;;;;;;;10.53;100.00;98110.19;5057063;28;20612;-77
2022/11/17 03:00:15;;;;;;;1.40;0.80;;;;;;;10.52;100.00;98109.34;5057879;28;20271;-75
2022/11/17 03:03:09;;;;;;;1.17;0.90;;;;;;;10.49;100.00;98096.56;5057509;28;22348;-75
2022/11/17 03:05:58;;;;;;;0.93;0.80;;;;;;;10.46;100.00;98085.50;5053930;28;21046;-77
2022/11/17 03:08:29;;;;;;;1.07;0.97;;;;;;;10.46;100.00;98085.50;5067742;28;20177;-76
2022/11/17 03:11:01;;;;;;;1.00;0.90;;;;;;;10.45;100.00;98086.41;5054638;28;20194;-77
2022/11/17 03:13:39;;;;;;;1.40;1.00;;;;;;;10.45;100.00;98100.16;5061343;28;20347;-77
2022/11/17 03:16:39;;;;;;;0.80;0.70;;;;;;;10.44;100.00;98095.91;5063958;28;20183;-77
2022/11/17 03:19:16;;;;;;;1.13;0.90;;;;;;;10.45;100.00;98089.81;5067556;28;20230;-75
2022/11/17 03:22:11;;;;;;;1.00;1.00;;;;;;;10.45;100.00;98089.81;5061155;28;20256;-75
2022/11/17 03:24:46;;;;;;;1.63;1.00;;;;;;;10.45;100.00;98083.81;5064057;28;20225;-75
2022/11/17 03:27:21;;;;;;;1.37;1.00;;;;;;;10.42;100.00;98118.44;5058524;28;20193;-75
2022/11/17 03:29:51;;;;;;;1.27;0.90;;;;;;;10.41;100.00;98142.59;5059855;28;20201;-76
2022/11/17 03:32:17;;;;;;;1.40;0.87;;;;;;;10.41;100.00;98141.75;5058275;28;20202;-76
2022/11/17 03:34:54;;;;;;;0.93;0.80;;;;;;;10.40;100.00;98153.84;5067952;28;20199;-76
2022/11/17 03:37:21;;;;;;;2.47;1.20;;;;;;;10.40;100.00;98104.72;5060614;28;20266;-76
2022/11/17 03:39:53;;;;;;;1.50;1.40;;;;;;;10.37;100.00;98095.31;5059057;28;20183;-76
2022/11/17 03:42:23;;;;;;;1.30;1.10;;;;;;;10.34;100.00;98095.47;5065242;28;20280;-76
2022/11/17 03:44:54;;;;;;;1.27;1.17;;;;;;;10.31;100.00;98099.91;5062248;28;20666;-76
2022/11/17 03:47:23;;;;;;;1.47;1.37;;;;;;;10.29;100.00;98105.16;5065201;28;20186;-76
2022/11/17 03:50:07;;;;;;;1.53;1.23;;;;;;;10.27;100.00;98112.13;5067414;28;20235;-77
2022/11/17 03:52:33;;;;;;;1.83;1.07;;;;;;;10.25;100.00;98108.75;5066755;28;20302;-76
2022/11/17 03:55:00;;;;;;;1.00;1.00;;;;;;;10.22;100.00;98103.72;5066664;28;20189;-76
2022/11/17 03:57:39;;;;;;;1.30;1.20;;;;;;;10.19;100.00;98090.94;5058603;28;20315;-76
2022/11/17 04:00:07;;;;;;;1.50;1.20;;;;;;;10.16;100.00;98091.06;5058276;28;20208;-76
2022/11/17 04:02:33;;;;;;;1.27;1.17;;;;;;;10.14;100.00;98092.88;5057423;28;20209;-76
2022/11/17 04:05:04;;;;;;;1.07;1.00;;;;;;;10.11;100.00;98099.03;5056952;28;20206;-76
2022/11/17 04:07:31;;;;;;;1.87;1.20;;;;;;;10.11;100.00;98101.63;5063276;28;20778;-78
2022/11/17 04:09:56;;;;;;;1.40;1.30;;;;;;;10.11;100.00;98101.63;5059884;28;20236;-76
2022/11/17 04:17:50;;;;;;;1.50;1.40;;;;;;;10.09;100.00;98110.31;5064017;28;20271;-75
2022/11/17 04:20:16;;;;;;;1.93;1.20;;;;;;;10.07;100.00;98108.63;5059803;28;20247;-77
2022/11/17 04:22:41;;;;;;;2.30;1.20;;;;;;;10.06;100.00;98106.94;5057150;28;20282;-76
2022/11/17 04:25:07;;;;;;;1.20;1.10;;;;;;;10.08;100.00;98099.16;5069053;28;20193;-76
2022/11/17 04:30:16;;;;;;;1.00;0.90;;;;;;;10.13;100.00;98091.19;5062105;28;20248;-76
2022/11/17 04:32:42;;;;;;;1.03;0.97;;;;;;;10.13;100.00;98102.38;5059443;28;20210;-76
2022/11/17 04:35:07;;;;;;;1.13;1.00;;;;;;;10.15;100.00;98094.56;5057000;28;20194;-76
2022/11/17 04:37:32;;;;;;;1.93;0.90;;;;;;;10.15;100.00;98099.72;5062865;28;20551;-76
2022/11/17 04:39:58;;;;;;;1.43;0.93;;;;;;;10.17;100.00;98085.81;5066926;28;20740;-76
2022/11/17 04:42:23;;;;;;;1.00;0.90;;;;;;;10.17;100.00;98072.91;5067369;28;20234;-76
2022/11/17 04:44:48;;;;;;;1.37;0.90;;;;;;;10.17;100.00;98066.91;5061345;28;20187;-76
2022/11/17 04:47:14;;;;;;;0.70;0.70;;;;;;;10.17;100.00;98064.31;5064399;28;20214;-76
2022/11/17 04:49:39;;;;;;;1.10;0.70;;;;;;;10.18;100.00;98060.84;5066632;28;20191;-76
2022/11/17 04:52:04;;;;;;;2.57;0.97;;;;;;;10.16;100.00;98060.88;5063702;28;20210;-76
2022/11/17 04:54:30;;;;;;;1.00;0.60;;;;;;;10.19;100.00;98052.19;5069025;28;20185;-76
2022/11/17 04:56:56;;;;;;;1.20;0.60;;;;;;;10.22;100.00;98045.13;5065544;28;20213;-76
2022/11/17 04:59:21;;;;;;;1.80;0.60;;;;;;;10.27;100.00;98054.44;5070039;28;20280;-77
2022/11/17 05:01:47;;;;;;;0.63;0.50;;;;;;;10.31;100.00;98033.53;5065522;28;20518;-76
2022/11/17 05:04:54;;;;;;;0.77;0.40;;;;;;;10.35;100.00;98029.91;5061347;28;20229;-76
2022/11/17 05:07:05;;;;;;;3.63;0.60;;;;;;;10.41;100.00;98035.72;5063622;28;20222;-77
2022/11/17 05:09:30;;;;;;;0.70;0.50;;;;;;;10.44;100.00;98054.53;5064982;28;20194;-76
2022/11/17 05:14:40;;;;;;;0.93;0.60;;;;;;;10.49;100.00;98059.53;5066237;28;20201;-76
2022/11/17 05:17:05;;;;;;;0.73;0.60;;;;;;;10.52;100.00;98055.03;5069293;28;20186;-76
2022/11/17 05:19:45;;;;;;;0.80;0.50;;;;;;;10.56;100.00;98052.31;5069986;28;20184;-76
2022/11/17 05:24:58;;;;;;;0.70;0.60;;;;;;;10.60;100.00;98043.50;5066669;28;20230;-76
2022/11/17 05:27:26;;;;;;;1.67;0.60;;;;;;;10.62;100.00;98041.69;5070403;28;20217;-76
2022/11/17 05:29:52;;;;;;;1.33;0.97;;;;;;;10.58;100.00;98047.94;5068804;28;20278;-76
2022/11/17 05:32:18;;;;;;;0.67;0.50;;;;;;;10.52;100.00;98061.94;5069617;28;20322;-75
2022/11/17 05:34:43;;;;;;;1.23;0.50;;;;;;;10.48;100.00;98058.66;5059124;28;20286;-76
2022/11/17 05:37:08;;;;;;;1.47;0.70;;;;;;;10.49;100.00;98062.09;5064941;28;20186;-76
2022/11/17 05:39:34;;;;;;;1.60;0.70;;;;;;;10.48;100.00;98065.59;5063766;28;20186;-75
2022/11/17 05:41:59;;;;;;;5.83;0.93;;;;;;;10.49;100.00;98069.88;5067293;28;20301;-76
2022/11/17 05:44:24;;;;;;;1.57;0.60;;;;;;;10.50;100.00;98068.97;5064351;28;21057;-75
2022/11/17 05:46:50;;;;;;;1.00;0.43;;;;;;;10.52;100.00;98080.06;5068021;28;20194;-76
2022/11/17 05:49:15;;;;;;;0.83;0.60;;;;;;;10.52;100.00;98082.63;5067355;28;20193;-76
2022/11/17 05:51:40;;;;;;;0.70;0.60;;;;;;;10.55;100.00;98082.50;5072566;28;20588;-76
2022/11/17 05:54:06;;;;;;;1.70;0.73;;;;;;;10.56;100.00;98091.94;5072041;28;20646;-76
2022/11/17 05:56:37;;;;;;;1.53;0.77;;;;;;;10.57;100.00;98091.03;5063177;28;20622;-76
2022/11/17 05:59:05;;;;;;;2.27;0.80;;;;;;;10.59;100.00;98084.06;5066119;28;20970;-76
2022/11/17 06:01:34;;;;;;;1.47;0.77;;;;;;;10.60;100.00;98090.91;5070925;28;20186;-76
2022/11/17 06:04:02;;;;;;;0.83;0.63;;;;;;;10.63;100.00;98082.16;5063490;28;20190;-76
2022/11/17 06:06:28;;;;;;;3.03;0.80;;;;;;;10.63;100.00;98088.19;5064147;28;20196;-76
2022/11/17 06:08:54;;;;;;;1.10;0.80;;;;;;;10.64;100.00;98086.44;5060857;28;20188;-76
2022/11/17 06:11:20;;;;;;;1.23;0.80;;;;;;;10.65;100.00;98081.22;5063232;28;20190;-76
2022/11/17 06:13:45;;;;;;;3.00;1.17;;;;;;;10.65;100.00;98077.78;5056559;28;20211;-76
2022/11/17 06:16:17;;;;;;;1.67;0.73;;;;;;;10.60;100.00;98088.31;5068098;28;20182;-76
2022/11/17 06:18:49;;;;;;;3.00;0.97;;;;;;;10.55;100.00;98076.50;5065422;28;20276;-76
2022/11/17 06:21:15;;;;;;;1.07;0.60;;;;;;;10.48;100.00;98076.78;5060899;28;20190;-76
2022/11/17 06:23:44;;;;;;;1.43;0.70;;;;;;;10.46;100.00;98075.16;5067905;28;20193;-76
2022/11/17 06:26:10;;;;;;;0.80;0.70;;;;;;;10.45;100.00;98076.06;5068112;28;20188;-76
2022/11/17 06:28:39;;;;;;;1.63;0.80;;;;;;;10.45;100.00;98078.66;5062208;28;20607;-76
2022/11/17 06:31:06;;;;;;;1.17;0.67;;;;;;;10.45;100.00;98061.38;5064610;28;20193;-76
2022/11/17 06:33:33;;;;;;;0.87;0.57;;;;;;;10.45;100.00;98039.88;5068402;28;20274;-76
2022/11/17 06:36:01;;;;;;;1.87;0.90;;;;;;;10.45;100.00;98045.03;5065190;28;20694;-76
2022/11/17 06:38:28;;;;;;;1.17;0.77;;;;;;;10.43;100.00;98052.03;5052352;28;20189;-76
2022/11/17 06:40:54;;;;;;;1.30;0.60;;;;;;;10.43;100.00;98058.06;5065787;28;20194;-76
2022/11/17 06:43:19;;;;;;;1.17;0.57;;;;;;;10.44;100.00;98064.06;5068012;28;20198;-76
2022/11/17 06:45:47;;;;;;;1.03;0.70;;;;;;;10.45;100.00;98068.31;5065273;28;20198;-76
2022/11/17 06:48:15;;;;;;;1.67;0.60;;;;;;;10.45;100.00;98074.31;5063681;28;20189;-75
2022/11/17 06:50:41;;;;;;;0.77;0.67;;;;;;;10.43;100.00;98062.38;5068963;28;20816;-76
2022/11/17 06:53:08;;;;;;;1.70;0.90;;;;;;;10.41;100.00;98059.84;5062920;28;20210;-76
2022/11/17 06:55:34;;;;;;;1.73;0.90;;;;;;;10.40;100.00;98070.25;5056634;28;20240;-77
2022/11/17 06:58:05;;;;;;;3.87;1.20;;;;;;;10.39;100.00;98072.00;5070640;28;20190;-77
2022/11/17 07:00:31;;;;;;;2.37;1.30;;;;;;;10.40;100.00;98073.69;5061972;28;20728;-76
2022/11/17 07:03:08;;;;;;;3.10;1.60;;;;;;;10.43;100.00;98068.41;5063878;28;20206;-76
2022/11/17 07:05:34;;;;;;;2.30;1.33;;;;;;;10.43;100.00;98067.53;5056728;28;20199;-76
2022/11/17 07:08:02;;;;;;;2.37;1.30;;;;;;;10.40;100.00;98073.69;5050571;28;20266;-76
2022/11/17 07:10:29;;;;;;;1.67;1.03;;;;;;;10.37;100.00;98084.97;5022146;28;20190;-76
2022/11/17 07:12:54;;;;;;;2.53;1.20;;;;;;;10.39;100.00;98077.19;5023029;28;20218;-76
2022/11/17 07:15:20;;;;;;;2.70;1.20;;;;;;;10.46;100.00;98086.34;5016922;28;20184;-76
2022/11/17 07:17:46;;;;;;;1.77;0.93;;;;;;;10.57;100.00;98098.81;5019675;28;20207;-75
2022/11/17 07:20:12;;;;;;;3.43;1.30;;;;;;;10.70;100.00;98099.09;5023969;28;22088;-76
2022/11/17 07:22:38;;;;;;;4.03;1.50;;;;;;;10.81;100.00;98103.81;5021341;28;20199;-76
2022/11/17 07:25:04;;;;;;;3.07;1.43;;;;;;;10.92;100.00;98103.28;5018688;28;20199;-76
2022/11/17 07:27:30;;;;;;;3.70;1.60;;;;;;;11.02;100.00;98103.72;5024593;28;20184;-76
2022/11/17 07:29:56;;;;;;;1.97;1.20;;;;;;;11.09;100.00;98105.94;5020869;28;20188;-75
2022/11/17 07:32:21;;;;;;;2.60;1.13;;;;;;;11.13;100.00;98107.50;5020655;28;20211;-76
2022/11/17 07:34:47;;;;;;;2.70;1.30;;;;;;;11.17;100.00;98108.19;5020826;28;20675;-76
2022/11/17 07:37:13;;;;;;;2.00;1.10;;;;;;;11.23;100.00;98114.81;5019814;28;20217;-75
2022/11/17 07:39:38;;;;;;;3.30;1.13;;;;;;;11.28;100.00;98116.28;5017547;28;20189;-75
2022/11/17 07:42:06;;;;;;;2.77;0.90;;;;;;;11.35;100.00;98118.59;5019310;28;20596;-75
2022/11/17 07:44:33;;;;;;;2.27;1.10;;;;;;;11.39;100.00;98120.97;5023463;28;20629;-75
2022/11/17 07:46:58;;;;;;;1.20;1.00;;;;;;;11.42;100.00;98122.56;5016262;28;20520;-77
2022/11/17 07:49:25;;;;;;;1.07;0.87;;;;;;;11.43;100.00;98119.91;5014054;28;20191;-75
2022/11/17 07:51:50;;;;;;;2.43;1.00;;;;;;;11.46;100.00;98116.34;5018051;28;20223;-75
2022/11/17 07:54:15;;;;;;;3.03;1.13;;;;;;;11.49;100.00;98107.59;5020844;28;20191;-75
2022/11/17 07:56:41;;;;;;;1.90;1.00;;;;;;;11.51;100.00;98119.56;5019572;28;20233;-75
2022/11/17 07:59:06;;;;;;;1.73;0.90;;;;;;;11.55;100.00;98120.25;5019847;28;20557;-78
2022/11/17 08:01:31;;;;;;;1.93;0.73;;;;;;;11.57;100.00;98134.78;5018996;28;20666;-75
2022/11/17 08:03:57;;;;;;;3.67;1.20;;;;;;;11.60;100.00;98136.41;5019284;28;20195;-75
2022/11/17 08:06:23;;;;;;;3.43;1.10;;;;;;;11.63;100.00;98141.47;5022065;28;20190;-77
2022/11/17 08:08:49;;;;;;;3.23;1.30;;;;;;;11.67;100.00;98139.56;5018196;28;20187;-76
2022/11/17 08:11:15;;;;;;;3.37;1.20;;;;;;;11.69;100.00;98141.13;5025921;28;20288;-74
2022/11/17 08:13:41;;;;;;;2.10;0.87;;;;;;;11.73;100.00;98144.41;5027529;28;20299;-75
2022/11/17 08:16:08;;;;;;;1.77;1.07;;;;;;;11.74;100.00;98152.13;5028692;28;20287;-75
2022/11/17 08:18:34;;;;;;;1.43;0.90;;;;;;;11.74;100.00;98152.13;5029669;28;20188;-75
2022/11/17 08:21:08;;;;;;;2.00;0.90;;;;;;;11.73;100.00;98145.28;5026801;28;20194;-75
2022/11/17 08:23:34;;;;;;;3.87;1.10;;;;;;;11.73;100.00;98136.63;5027757;28;20225;-75
2022/11/17 08:26:01;;;;;;;2.13;1.03;;;;;;;11.81;100.00;98144.91;5027796;28;20720;-75
2022/11/17 08:28:26;;;;;;;3.83;1.10;;;;;;;11.97;100.00;98147.56;5025332;28;20182;-77
2022/11/17 08:30:52;;;;;;;1.30;0.70;;;;;;;12.13;100.00;98139.06;5024015;28;20197;-75
2022/11/17 08:33:17;;;;;;;3.53;0.90;;;;;;;12.22;100.00;98146.41;5024910;28;20576;-75
2022/11/17 08:35:42;;;;;;;3.93;0.87;;;;;;;12.30;100.00;98143.44;5026544;28;20197;-75
2022/11/17 08:38:10;;;;;;;1.90;0.80;;;;;;;12.38;100.00;98149.06;5029991;28;20547;-77
2022/11/17 08:40:36;;;;;;;2.20;0.80;;;;;;;12.46;100.00;98138.28;5028207;28;20185;-77
2022/11/17 08:43:03;;;;;;;2.40;0.70;;;;;;;12.50;100.00;98158.78;5024597;28;20574;-74
2022/11/17 08:45:28;;;;;;;1.53;0.70;;;;;;;12.64;100.00;98162.44;5027373;28;20188;-77
2022/11/17 08:47:55;;;;;;;0.93;0.70;;;;;;;12.69;100.00;98157.03;5025877;28;20199;-76
2022/11/17 08:50:20;;;;;;;3.20;0.90;;;;;;;12.61;100.00;98160.03;5027168;28;20693;-76
2022/11/17 08:52:46;;;;;;;2.00;1.10;;;;;;;12.55;100.00;98168.97;5024828;28;20256;-76
2022/11/17 08:55:12;;;;;;;2.60;1.37;;;;;;;12.41;100.00;98151.50;5027526;28;20198;-76
2022/11/17 08:57:37;;;;;;;2.33;0.90;;;;;;;12.33;100.00;98158.81;5025663;28;20195;-76
2022/11/17 09:00:04;;;;;;;0.90;0.60;;;;;;;12.36;100.00;98171.63;5019109;28;20557;-76
2022/11/17 09:02:30;;;;;;;3.73;1.07;;;;;;;12.43;100.00;98165.22;5025788;28;20899;-76
2022/11/17 09:04:55;;;;;;;2.87;1.00;;;;;;;12.46;100.00;98165.09;5022025;28;20202;-76
2022/11/17 09:07:21;;;;;;;1.07;0.63;;;;;;;12.55;100.00;98163.78;5025108;28;20198;-76
2022/11/17 09:09:47;;;;;;;1.90;0.80;;;;;;;12.66;100.00;98163.19;5026776;28;20246;-76
2022/11/17 09:12:13;;;;;;;2.03;1.00;;;;;;;12.71;100.00;98170.75;5026706;28;20237;-76
2022/11/17 09:14:38;;;;;;;2.13;0.70;;;;;;;12.72;100.00;98180.19;5025496;28;20190;-76
2022/11/17 09:17:04;;;;;;;1.90;0.83;;;;;;;12.76;100.00;98171.34;5026314;28;20303;-76
2022/11/17 09:19:29;;;;;;;2.20;0.80;;;;;;;12.76;100.00;98182.59;5027767;28;20186;-76
2022/11/17 09:21:55;;;;;;;4.40;1.20;;;;;;;12.72;100.00;98183.66;5022615;28;20229;-76
2022/11/17 09:24:20;;;;;;;3.20;1.00;;;;;;;12.67;100.00;98188.22;5026737;28;20189;-77
2022/11/17 09:26:46;;;;;;;2.17;0.73;;;;;;;12.64;100.00;98190.97;5020837;28;20244;-74
2022/11/17 09:29:11;;;;;;;2.00;0.90;;;;;;;12.59;100.00;98187.81;5022120;28;20188;-75
2022/11/17 09:31:37;;;;;;;1.63;0.70;;;;;;;12.58;100.00;98204.28;5024984;28;20199;-75
2022/11/17 09:34:02;;;;;;;2.70;1.10;;;;;;;12.55;100.00;98205.28;5022929;28;20287;-75
2022/11/17 09:36:28;;;;;;;4.27;1.23;;;;;;;12.53;100.00;98201.06;5024545;28;20190;-75
2022/11/17 09:38:53;;;;;;;1.80;0.80;;;;;;;12.65;100.00;98209.09;5037142;28;20174;-75
2022/11/17 09:41:40;;;;;;;3.07;0.97;;;;;;;12.72;100.00;98200.97;5047301;28;20170;-75
2022/11/17 09:44:09;;;;;;;2.30;1.10;;;;;;;12.81;100.00;98206.53;5040323;28;20740;-75
2022/11/17 09:46:35;;;;;;;2.60;1.10;;;;;;;12.87;100.00;98207.97;5027550;28;20194;-75
2022/11/17 09:49:06;;;;;;;3.70;1.30;;;;;;;12.90;100.00;98207.81;5024460;28;20185;-75
2022/11/17 09:51:37;;;;;;;3.30;1.00;;;;;;;12.96;99.98;98206.66;5020994;28;20196;-75
2022/11/17 09:54:27;;;;;;;4.27;1.30;;;;;;;13.06;98.42;98200.06;5025663;28;20186;-75
2022/11/17 09:56:56;;;;;;;3.00;1.40;;;;;;;13.17;98.19;98202.06;5022357;28;20202;-75
2022/11/17 09:59:26;;;;;;;3.70;1.50;;;;;;;13.39;97.38;98208.72;5021342;28;20180;-75
2022/11/17 10:01:51;;;;;;;4.90;1.50;;;;;;;13.54;95.99;98213.13;5023580;28;20197;-77
2022/11/17 10:04:17;;;;;;;4.20;1.43;;;;;;;13.65;96.02;98211.69;5023694;28;20184;-75
2022/11/17 10:06:45;;;;;;;2.53;1.00;;;;;;;13.69;95.94;98211.44;5024463;28;20619;-77
2022/11/17 10:09:28;;;;;;;2.27;1.13;;;;;;;13.66;95.43;98216.84;5024851;28;20191;-76
2022/11/17 10:12:06;;;;;;;2.73;1.27;;;;;;;13.68;95.87;98217.59;5023957;28;20303;-75
2022/11/17 10:14:33;;;;;;;2.37;1.30;;;;;;;13.68;95.84;98214.13;5022100;28;20712;-75
2022/11/17 10:16:59;;;;;;;4.00;1.40;;;;;;;13.71;96.33;98216.56;5022133;28;20184;-74
2022/11/17 10:19:31;;;;;;;2.60;1.27;;;;;;;13.71;96.84;98217.41;5021109;28;20895;-76
2022/11/17 10:22:00;;;;;;;5.03;1.80;;;;;;;13.76;96.62;98217.16;5024073;28;20314;-75
2022/11/17 10:24:46;;;;;;;3.30;1.00;;;;;;;13.78;96.48;98223.09;5026404;28;20177;-75
2022/11/17 10:27:20;;;;;;;3.10;1.37;;;;;;;13.82;95.68;98208.19;5021496;28;20183;-75
2022/11/17 10:30:17;;;;;;;5.77;1.90;;;;;;;13.74;94.61;98219.00;5024343;28;20723;-76
2022/11/17 10:32:48;;;;;;;3.37;1.30;;;;;;;13.72;94.28;98220.84;4995041;28;20258;-75
2022/11/17 10:35:13;;;;;;;4.60;1.50;;;;;;;13.64;94.51;98228.22;5022911;28;20211;-75
2022/11/17 10:37:44;;;;;;;2.30;1.10;;;;;;;13.64;94.39;98233.41;5024067;28;20980;-75
2022/11/17 10:40:30;;;;;;;2.30;1.03;;;;;;;13.65;94.19;98222.94;5017648;28;20175;-75
2022/11/17 10:43:20;;;;;;;4.37;1.63;;;;;;;13.73;94.36;98217.31;5015624;28;20307;-77
2022/11/17 10:45:48;;;;;;;4.10;1.10;;;;;;;13.83;94.37;98223.69;5025306;28;20677;-77
2022/11/17 10:48:33;;;;;;;1.70;1.10;;;;;;;14.06;94.11;98229.38;5016955;28;20237;-77
2022/11/17 10:51:10;;;;;;;3.50;1.40;;;;;;;14.31;93.39;98226.19;5025920;28;20364;-77
2022/11/17 10:53:40;;;;;;;3.53;1.40;;;;;;;14.60;92.98;98230.66;5015928;28;20254;-75
2022/11/17 10:56:13;;;;;;;2.00;1.27;;;;;;;14.94;92.23;98226.06;5017745;28;20206;-75
2022/11/17 10:59:13;;;;;;;6.43;1.80;;;;;;;15.13;89.94;98228.41;5020128;28;20187;-76
2022/11/17 11:01:42;;;;;;;2.40;1.10;;;;;;;15.06;90.01;98237.50;4998489;28;20219;-76
2022/11/17 11:04:31;;;;;;;4.43;1.40;;;;;;;14.90;90.43;98224.56;5021889;28;20185;-76
2022/11/17 11:07:09;;;;;;;3.80;1.10;;;;;;;14.90;90.78;98237.59;5023169;28;20651;-76
2022/11/17 11:09:53;;;;;;;2.73;1.20;;;;;;;14.69;91.40;98237.94;5021679;28;20183;-76
2022/11/17 11:12:28;;;;;;;3.50;1.20;;;;;;;14.50;92.08;98229.50;5015772;28;20226;-77
2022/11/17 11:14:57;;;;;;;2.00;1.03;;;;;;;14.24;92.94;98234.44;5016788;28;20555;-77
2022/11/17 11:17:26;;;;;;;5.37;1.40;;;;;;;13.95;94.14;98249.91;5025801;28;20183;-76
2022/11/17 11:19:52;;;;;;;3.67;1.20;;;;;;;13.77;95.22;98238.78;5025227;28;20179;-76
2022/11/17 11:22:33;;;;;;;4.50;1.30;;;;;;;13.68;96.16;98221.94;5019442;28;20211;-77
2022/11/17 11:25:10;;;;;;;3.17;1.10;;;;;;;13.91;95.63;98238.84;5018478;28;20183;-76
2022/11/17 11:27:50;;;;;;;3.43;1.47;;;;;;;14.04;95.96;98241.63;5025380;28;20746;-76
2022/11/17 11:30:17;;;;;;;4.97;1.73;;;;;;;14.08;96.08;98222.28;5023570;28;20194;-76
2022/11/17 11:33:01;;;;;;;4.57;1.50;;;;;;;14.07;96.53;98223.22;5022972;28;20218;-76
2022/11/17 11:35:41;;;;;;;3.70;1.70;;;;;;;14.04;97.12;98226.03;5023189;28;20602;-76
2022/11/17 11:38:34;;;;;;;5.43;1.60;;;;;;;14.03;97.99;98216.53;5024308;28;20550;-76
2022/11/17 11:41:53;;;;;;;3.60;1.50;;;;;;;14.05;98.45;98226.84;5017589;28;20958;-76
2022/11/17 11:44:49;;;;;;;3.47;1.73;;;;;;;14.06;99.30;98231.13;4980551;28;20184;-75
2022/11/17 11:47:41;;;;;;;3.53;1.60;;;;;;;14.02;98.56;98227.88;4980477;28;20189;-76
2022/11/17 11:50:30;;;;;;;3.37;1.60;;;;;;;13.91;99.55;98230.22;5021577;28;20199;-76
2022/11/17 11:53:02;;;;;;;4.00;1.30;;;;;;;13.89;100.00;98239.88;5021717;28;20224;-75
2022/11/17 11:55:34;;;;;;;3.67;1.50;;;;;;;13.94;100.00;98243.91;5026725;28;20198;-76
2022/11/17 11:58:22;;;;;;;5.60;1.90;;;;;;;14.02;98.95;98233.88;5014797;28;20238;-76
2022/11/17 12:00:52;;;;;;;4.47;1.80;;;;;;;14.10;98.45;98245.63;5027562;28;20253;-76
2022/11/17 12:03:35;;;;;;;4.87;1.73;;;;;;;14.15;97.84;98235.78;5022051;28;20612;-77